Time,TemperatureF,DewpointF,PressureIn,WindDirection,WindDirectionDegrees,WindSpeedMPH,WindSpeedGustMPH,Humidity,HourlyPrecipIn,Conditions,Clouds,dailyrainin,SoftwareType,DateUTC
2013-07-15 00:11:00,66.0,45.0,30.27,South,177,2.0,4.0,47,-99.99,,,-99.99,,2013-07-15 06:11:00,
2013-07-15 00:22:00,66.0,45.0,30.27,South,179,2.0,5.0,47,-99.99,,,-99.99,,2013-07-15 06:22:00,
2013-07-15 00:42:00,67.0,45.0,30.27,SSE,167,1.0,4.0,45,-99.99,,,-99.99,,2013-07-15 06:42:00,
2013-07-15 00:53:00,65.0,46.0,30.26,South,186,2.0,4.0,51,-99.99,,,-99.99,,2013-07-15 06:53:00,
2013-07-15 01:11:00,64.0,46.0,30.26,South,183,2.0,5.0,52,-99.99,,,-99.99,,2013-07-15 07:11:00,
2013-07-15 01:21:00,63.0,46.0,30.26,South,188,2.0,4.0,54,-99.99,,,-99.99,,2013-07-15 07:21:00,
2013-07-15 01:32:00,63.0,46.0,30.26,South,188,2.0,4.0,54,-99.99,,,-99.99,,2013-07-15 07:32:00,
2013-07-15 01:43:00,62.0,45.0,30.26,South,188,1.0,4.0,53,-99.99,,,-99.99,,2013-07-15 07:43:00,
2013-07-15 01:53:00,62.0,45.0,30.26,South,184,2.0,5.0,54,-99.99,,,-99.99,,2013-07-15 07:53:00,
2013-07-15 02:11:00,63.0,45.0,30.26,South,174,2.0,4.0,51,-99.99,,,-99.99,,2013-07-15 08:11:00,
2013-07-15 02:22:00,63.0,45.0,30.25,South,175,2.0,4.0,51,-99.99,,,-99.99,,2013-07-15 08:22:00,
2013-07-15 02:43:00,62.0,44.0,30.25,South,178,1.0,3.0,52,-99.99,,,-99.99,,2013-07-15 08:43:00,
2013-07-15 02:53:00,62.0,45.0,30.25,South,178,1.0,2.0,53,-99.99,,,-99.99,,2013-07-15 08:53:00,
2013-07-15 03:11:00,61.0,44.0,30.24,South,169,0.0,2.0,54,-99.99,,,-99.99,,2013-07-15 09:11:00,
2013-07-15 03:22:00,61.0,44.0,30.24,SSE,167,0.0,1.0,54,-99.99,,,-99.99,,2013-07-15 09:22:00,
2013-07-15 03:42:00,61.0,44.0,30.24,South,169,0.0,1.0,54,-99.99,,,-99.99,,2013-07-15 09:42:00,
2013-07-15 03:52:00,61.0,44.0,30.24,South,180,1.0,2.0,54,-99.99,,,-99.99,,2013-07-15 09:52:00,
2013-07-15 04:11:00,61.0,45.0,30.24,South,189,2.0,4.0,55,-99.99,,,-99.99,,2013-07-15 10:11:00,
2013-07-15 04:21:00,60.0,44.0,30.24,South,188,0.0,2.0,56,-99.99,,,-99.99,,2013-07-15 10:21:00,
2013-07-15 04:42:00,60.0,45.0,30.24,South,173,1.0,2.0,57,-99.99,,,-99.99,,2013-07-15 10:42:00,
2013-07-15 04:53:00,60.0,44.0,30.24,South,182,0.0,3.0,56,-99.99,,,-99.99,,2013-07-15 10:53:00,
2013-07-15 05:11:00,60.0,45.0,30.24,South,176,1.0,3.0,57,-99.99,,,-99.99,,2013-07-15 11:11:00,
2013-07-15 05:22:00,60.0,45.0,30.24,South,186,2.0,4.0,57,-99.99,,,-99.99,,2013-07-15 11:22:00,
2013-07-15 05:32:00,61.0,45.0,30.22,South,184,1.0,4.0,55,-99.99,,,-99.99,,2013-07-15 11:32:00,
2013-07-15 05:42:00,61.0,45.0,30.22,South,184,1.0,4.0,55,-99.99,,,-99.99,,2013-07-15 11:42:00,
2013-07-15 05:52:00,61.0,46.0,30.22,SSW,204,0.0,3.0,57,-99.99,,,-99.99,,2013-07-15 11:52:00,
2013-07-15 06:11:00,61.0,45.0,30.22,South,186,0.0,3.0,55,-99.99,,,-99.99,,2013-07-15 12:11:00,
2013-07-15 06:22:00,62.0,45.0,30.22,South,189,0.0,1.0,53,-99.99,,,-99.99,,2013-07-15 12:22:00,
2013-07-15 06:42:00,61.0,44.0,30.22,North,0,0.0,0.0,54,-99.99,,,-99.99,,2013-07-15 12:42:00,
2013-07-15 06:53:00,61.0,44.0,30.22,South,190,0.0,0.0,54,-99.99,,,-99.99,,2013-07-15 12:53:00,
2013-07-15 07:00:00,61.0,44.0,30.22,North,0,0.0,0.0,54,-99.99,,,-99.99,,2013-07-15 13:00:00,
2013-07-15 07:11:00,62.0,44.0,30.22,South,179,0.0,0.0,52,-99.99,,,-99.99,,2013-07-15 13:11:00,
2013-07-15 07:22:00,61.0,44.0,30.22,ESE,115,0.0,0.0,53,-99.99,,,-99.99,,2013-07-15 13:22:00,
2013-07-15 07:32:00,61.0,44.0,30.22,ESE,115,0.0,0.0,53,-99.99,,,-99.99,,2013-07-15 13:32:00,
2013-07-15 07:43:00,61.0,44.0,30.22,North,0,0.0,0.0,54,-99.99,,,-99.99,,2013-07-15 13:43:00,
2013-07-15 07:53:00,61.0,44.0,30.22,North,0,0.0,0.0,54,-99.99,,,-99.99,,2013-07-15 13:53:00,
2013-07-15 11:58:00,69.0,55.0,30.24,North,357,3.0,6.0,61,-99.99,,,-99.99,,2013-07-15 17:58:00,
2013-07-15 12:13:00,71.0,54.0,30.24,NNW,345,3.0,7.0,55,-99.99,,,-99.99,,2013-07-15 18:13:00,
2013-07-15 12:24:00,73.0,54.0,30.24,North,356,3.0,5.0,51,-99.99,,,-99.99,,2013-07-15 18:24:00,
2013-07-15 12:45:00,74.0,52.0,30.24,NNW,347,3.0,8.0,47,-99.99,,,-99.99,,2013-07-15 18:45:00,
2013-07-15 12:58:00,75.0,52.0,30.22,North,355,4.0,7.0,45,-99.99,,,-99.99,,2013-07-15 18:58:00,
2013-07-15 13:11:00,75.0,51.0,30.22,NNW,337,2.0,6.0,43,-99.99,,,-99.99,,2013-07-15 19:11:00,
2013-07-15 13:24:00,77.0,51.0,30.22,NNW,347,4.0,9.0,40,-99.99,,,-99.99,,2013-07-15 19:24:00,
2013-07-15 13:44:00,77.0,48.0,30.21,North,9,5.0,21.0,36,-99.99,,,-99.99,,2013-07-15 19:44:00,
2013-07-15 13:56:00,78.0,45.0,30.21,WSW,246,4.0,10.0,31,-99.99,,,-99.99,,2013-07-15 19:56:00,
2013-07-15 14:13:00,78.0,44.0,30.21,West,277,3.0,8.0,30,-99.99,,,-99.99,,2013-07-15 20:13:00,
2013-07-15 14:24:00,79.0,46.0,30.20,SW,223,3.0,8.0,31,-99.99,,,-99.99,,2013-07-15 20:24:00,
2013-07-15 14:43:00,80.0,46.0,30.19,WNW,288,3.0,7.0,30,-99.99,,,-99.99,,2013-07-15 20:43:00,
2013-07-15 14:56:00,80.0,46.0,30.19,NNW,332,4.0,10.0,30,-99.99,,,-99.99,,2013-07-15 20:56:00,
2013-07-15 15:12:00,79.0,45.0,30.19,NNW,345,4.0,9.0,30,-99.99,,,-99.99,,2013-07-15 21:12:00,
2013-07-15 15:45:00,79.0,45.0,30.16,North,2,4.0,8.0,30,-99.99,,,-99.99,,2013-07-15 21:45:00,
2013-07-15 15:59:00,78.0,45.0,30.16,WNW,286,1.0,4.0,31,-99.99,,,-99.99,,2013-07-15 21:59:00,
2013-07-15 16:14:00,78.0,46.0,30.16,SW,220,2.0,7.0,32,-99.99,,,-99.99,,2013-07-15 22:14:00,
2013-07-15 16:22:00,77.0,46.0,30.16,SW,220,2.0,7.0,34,-99.99,,,-99.99,,2013-07-15 22:22:00,
2013-07-15 16:43:00,77.0,47.0,30.15,SSW,206,2.0,5.0,35,-99.99,,,-99.99,,2013-07-15 22:43:00,
2013-07-15 16:54:00,77.0,46.0,30.15,South,172,1.0,6.0,34,-99.99,,,-99.99,,2013-07-15 22:54:00,
2013-07-15 17:13:00,79.0,47.0,30.15,SSW,200,1.0,5.0,33,-99.99,,,-99.99,,2013-07-15 23:13:00,
2013-07-15 17:54:00,79.0,47.0,30.14,North,355,0.0,3.0,33,-99.99,,,-99.99,,2013-07-15 23:54:00,
2013-07-15 18:12:00,79.0,49.0,30.14,NW,307,0.0,2.0,35,-99.99,,,-99.99,,2013-07-16 00:12:00,
2013-07-15 18:24:00,78.0,48.0,30.14,NW,315,2.0,7.0,35,-99.99,,,-99.99,,2013-07-16 00:24:00,
2013-07-15 18:33:00,78.0,48.0,30.14,NW,315,2.0,7.0,35,-99.99,,,-99.99,,2013-07-16 00:33:00,
2013-07-15 18:44:00,78.0,48.0,30.14,NW,315,2.0,7.0,35,-99.99,,,-99.99,,2013-07-16 00:44:00,
2013-07-15 18:53:00,75.0,50.0,30.14,NNW,335,3.0,8.0,41,-99.99,,,-99.99,,2013-07-16 00:53:00,
2013-07-15 19:12:00,77.0,50.0,30.14,WSW,254,2.0,7.0,39,-99.99,,,-99.99,,2013-07-16 01:12:00,
2013-07-15 19:45:00,73.0,47.0,30.14,SW,216,3.0,7.0,40,-99.99,,,-99.99,,2013-07-16 01:45:00,
2013-07-15 20:11:00,72.0,47.0,30.14,SSW,199,3.0,9.0,41,-99.99,,,-99.99,,2013-07-16 02:11:00,
2013-07-15 20:24:00,71.0,50.0,30.15,South,187,6.0,13.0,48,-99.99,,,-99.99,,2013-07-16 02:24:00,
2013-07-15 20:45:00,67.0,51.0,30.15,SSE,158,3.0,5.0,57,-99.99,,,-99.99,,2013-07-16 02:45:00,
2013-07-15 20:54:00,67.0,50.0,30.15,SSE,165,3.0,6.0,54,-99.99,,,-99.99,,2013-07-16 02:54:00,
2013-07-15 21:13:00,69.0,47.0,30.15,SSE,165,3.0,7.0,46,-99.99,,,-99.99,,2013-07-16 03:13:00,
2013-07-15 21:24:00,70.0,45.0,30.15,SSE,168,2.0,4.0,40,-99.99,,,-99.99,,2013-07-16 03:24:00,
2013-07-15 21:34:00,70.0,45.0,30.15,SSE,168,2.0,4.0,40,-99.99,,,-99.99,,2013-07-16 03:34:00,
2013-07-15 21:45:00,70.0,45.0,30.15,ESE,115,1.0,4.0,41,-99.99,,,-99.99,,2013-07-16 03:45:00,
2013-07-15 21:57:00,70.0,47.0,30.15,South,183,4.0,12.0,44,-99.99,,,-99.99,,2013-07-16 03:57:00,
2013-07-15 22:01:00,72.0,48.0,30.14,SSW,193,8.0,14.0,43,-99.99,,,-99.99,,2013-07-16 04:01:00,
2013-07-15 22:12:00,72.0,48.0,30.14,SSW,193,8.0,14.0,43,-99.99,,,-99.99,,2013-07-16 04:12:00,
2013-07-15 22:43:00,72.0,47.0,30.15,South,190,7.0,11.0,41,-99.99,,,-99.99,,2013-07-16 04:43:00,
2013-07-15 22:53:00,71.0,47.0,30.15,South,191,7.0,15.0,43,-99.99,,,-99.99,,2013-07-16 04:53:00,
2013-07-15 23:11:00,70.0,48.0,30.17,SW,215,6.0,12.0,46,-99.99,,,-99.99,,2013-07-16 05:11:00,
2013-07-15 23:22:00,69.0,50.0,30.19,SW,236,2.0,9.0,51,-99.99,,,-99.99,,2013-07-16 05:22:00,
2013-07-15 23:43:00,68.0,50.0,30.19,NNW,348,2.0,10.0,53,-99.99,,,-99.99,,2013-07-16 05:43:00,
2013-07-15 23:52:00,67.0,51.0,30.19,NE,45,1.0,4.0,57,-99.99,,,-99.99,,2013-07-16 05:52:00,